sensor_id;sensor_type;location;lat;lon;timestamp;temperature;humidity
5222;DHT22;2630;52.036;8.514;2023-06-22T00:02:13;18.20;99.90
5222;DHT22;2630;52.036;8.514;2023-06-22T00:04:38;18.20;99.90
5222;DHT22;2630;52.036;8.514;2023-06-22T00:07:04;18.20;99.90
5222;DHT22;2630;52.036;8.514;2023-06-22T00:09:31;18.20;99.90
5222;DHT22;2630;52.036;8.514;2023-06-22T00:11:56;18.30;99.90
5222;DHT22;2630;52.036;8.514;2023-06-22T00:14:22;18.30;99.90
5222;DHT22;2630;52.036;8.514;2023-06-22T00:16:48;18.20;99.90
5222;DHT22;2630;52.036;8.514;2023-06-22T00:21:40;18.20;99.90
5222;DHT22;2630;52.036;8.514;2023-06-22T00:24:06;18.20;99.90
5222;DHT22;2630;52.036;8.514;2023-06-22T00:26:32;18.30;99.90
5222;DHT22;2630;52.036;8.514;2023-06-22T00:28:57;18.30;99.90
5222;DHT22;2630;52.036;8.514;2023-06-22T00:31:23;18.20;99.90
5222;DHT22;2630;52.036;8.514;2023-06-22T00:33:48;18.20;99.90
5222;DHT22;2630;52.036;8.514;2023-06-22T00:36:16;18.20;99.90
5222;DHT22;2630;52.036;8.514;2023-06-22T00:38:43;18.30;99.90
5222;DHT22;2630;52.036;8.514;2023-06-22T00:41:08;18.20;99.90
5222;DHT22;2630;52.036;8.514;2023-06-22T00:43:34;18.30;99.90
5222;DHT22;2630;52.036;8.514;2023-06-22T00:45:59;18.40;99.90
5222;DHT22;2630;52.036;8.514;2023-06-22T00:48:25;18.40;99.90
5222;DHT22;2630;52.036;8.514;2023-06-22T00:50:52;18.40;99.90
5222;DHT22;2630;52.036;8.514;2023-06-22T00:53:19;18.50;99.90
5222;DHT22;2630;52.036;8.514;2023-06-22T00:55:45;18.60;99.90
5222;DHT22;2630;52.036;8.514;2023-06-22T00:58:12;18.50;99.90
5222;DHT22;2630;52.036;8.514;2023-06-22T01:00:39;18.60;99.90
5222;DHT22;2630;52.036;8.514;2023-06-22T01:03:05;18.60;99.90
5222;DHT22;2630;52.036;8.514;2023-06-22T01:05:34;18.60;99.90
5222;DHT22;2630;52.036;8.514;2023-06-22T01:10:53;18.60;99.90
5222;DHT22;2630;52.036;8.514;2023-06-22T01:16:18;18.70;99.90
5222;DHT22;2630;52.036;8.514;2023-06-22T01:18:47;18.70;99.90
5222;DHT22;2630;52.036;8.514;2023-06-22T01:21:16;18.70;99.90
5222;DHT22;2630;52.036;8.514;2023-06-22T01:24:19;18.70;99.90
5222;DHT22;2630;52.036;8.514;2023-06-22T01:27:05;18.70;99.90
5222;DHT22;2630;52.036;8.514;2023-06-22T01:29:34;18.70;99.90
5222;DHT22;2630;52.036;8.514;2023-06-22T01:32:02;18.70;99.90
5222;DHT22;2630;52.036;8.514;2023-06-22T01:34:31;18.70;99.90
5222;DHT22;2630;52.036;8.514;2023-06-22T01:39:24;18.80;99.90
5222;DHT22;2630;52.036;8.514;2023-06-22T01:41:50;18.70;99.90
5222;DHT22;2630;52.036;8.514;2023-06-22T01:46:43;18.70;99.90
5222;DHT22;2630;52.036;8.514;2023-06-22T01:49:09;18.70;99.90
5222;DHT22;2630;52.036;8.514;2023-06-22T01:51:34;18.70;99.90
5222;DHT22;2630;52.036;8.514;2023-06-22T01:54:01;18.70;99.90
5222;DHT22;2630;52.036;8.514;2023-06-22T01:56:27;18.70;99.90
5222;DHT22;2630;52.036;8.514;2023-06-22T01:59:03;18.70;99.90
5222;DHT22;2630;52.036;8.514;2023-06-22T02:01:36;18.70;99.90
5222;DHT22;2630;52.036;8.514;2023-06-22T02:04:23;18.70;99.90
5222;DHT22;2630;52.036;8.514;2023-06-22T02:06:52;18.60;99.90
5222;DHT22;2630;52.036;8.514;2023-06-22T02:09:22;18.60;99.90
5222;DHT22;2630;52.036;8.514;2023-06-22T02:11:50;18.60;99.90
5222;DHT22;2630;52.036;8.514;2023-06-22T02:14:21;18.70;99.90
5222;DHT22;2630;52.036;8.514;2023-06-22T02:16:46;18.60;99.90
5222;DHT22;2630;52.036;8.514;2023-06-22T02:19:12;18.60;99.90
5222;DHT22;2630;52.036;8.514;2023-06-22T02:21:41;18.50;99.90
5222;DHT22;2630;52.036;8.514;2023-06-22T02:24:06;18.50;99.90
5222;DHT22;2630;52.036;8.514;2023-06-22T02:26:32;18.50;99.90
5222;DHT22;2630;52.036;8.514;2023-06-22T02:28:58;18.50;99.90
5222;DHT22;2630;52.036;8.514;2023-06-22T02:31:23;18.50;99.90
5222;DHT22;2630;52.036;8.514;2023-06-22T02:33:58;18.50;99.90
5222;DHT22;2630;52.036;8.514;2023-06-22T02:36:24;18.50;99.90
5222;DHT22;2630;52.036;8.514;2023-06-22T02:38:53;18.50;99.90
5222;DHT22;2630;52.036;8.514;2023-06-22T02:41:19;18.50;99.90
5222;DHT22;2630;52.036;8.514;2023-06-22T02:43:45;18.60;99.90
5222;DHT22;2630;52.036;8.514;2023-06-22T02:46:11;18.60;99.90
5222;DHT22;2630;52.036;8.514;2023-06-22T02:48:39;18.60;99.90
5222;DHT22;2630;52.036;8.514;2023-06-22T02:53:30;18.50;99.90
5222;DHT22;2630;52.036;8.514;2023-06-22T02:55:56;18.50;99.90
5222;DHT22;2630;52.036;8.514;2023-06-22T03:00:47;18.60;99.90
5222;DHT22;2630;52.036;8.514;2023-06-22T03:03:13;18.60;99.90
5222;DHT22;2630;52.036;8.514;2023-06-22T03:05:38;18.60;99.90
5222;DHT22;2630;52.036;8.514;2023-06-22T03:10:31;18.60;99.90
5222;DHT22;2630;52.036;8.514;2023-06-22T03:12:57;18.60;99.90
5222;DHT22;2630;52.036;8.514;2023-06-22T03:15:22;18.60;99.90
5222;DHT22;2630;52.036;8.514;2023-06-22T03:17:48;18.60;99.90
5222;DHT22;2630;52.036;8.514;2023-06-22T03:20:13;18.60;99.90
5222;DHT22;2630;52.036;8.514;2023-06-22T03:22:40;18.50;99.90
5222;DHT22;2630;52.036;8.514;2023-06-22T03:25:08;18.50;99.90
5222;DHT22;2630;52.036;8.514;2023-06-22T03:27:39;18.50;99.90
5222;DHT22;2630;52.036;8.514;2023-06-22T03:30:07;18.50;99.90
5222;DHT22;2630;52.036;8.514;2023-06-22T03:32:33;18.50;99.90
5222;DHT22;2630;52.036;8.514;2023-06-22T03:34:59;18.50;99.90
5222;DHT22;2630;52.036;8.514;2023-06-22T03:37:25;18.50;99.90
5222;DHT22;2630;52.036;8.514;2023-06-22T03:39:51;18.50;99.90
5222;DHT22;2630;52.036;8.514;2023-06-22T03:42:17;18.60;99.90
5222;DHT22;2630;52.036;8.514;2023-06-22T03:44:43;18.60;99.90
5222;DHT22;2630;52.036;8.514;2023-06-22T03:49:35;18.70;99.90
5222;DHT22;2630;52.036;8.514;2023-06-22T03:52:01;18.70;99.90
5222;DHT22;2630;52.036;8.514;2023-06-22T03:54:31;18.70;99.90
5222;DHT22;2630;52.036;8.514;2023-06-22T03:56:57;18.90;99.90
5222;DHT22;2630;52.036;8.514;2023-06-22T03:59:23;18.90;99.90
5222;DHT22;2630;52.036;8.514;2023-06-22T04:01:48;19.00;99.90
5222;DHT22;2630;52.036;8.514;2023-06-22T04:04:14;19.20;99.90
5222;DHT22;2630;52.036;8.514;2023-06-22T04:06:40;19.20;99.90
5222;DHT22;2630;52.036;8.514;2023-06-22T04:09:06;19.20;99.90
5222;DHT22;2630;52.036;8.514;2023-06-22T04:11:32;19.20;99.90
5222;DHT22;2630;52.036;8.514;2023-06-22T04:13:57;19.20;99.90
5222;DHT22;2630;52.036;8.514;2023-06-22T04:16:23;19.20;99.90
5222;DHT22;2630;52.036;8.514;2023-06-22T04:18:48;19.20;99.90
5222;DHT22;2630;52.036;8.514;2023-06-22T04:21:14;19.20;99.90
5222;DHT22;2630;52.036;8.514;2023-06-22T04:23:40;19.30;99.90
5222;DHT22;2630;52.036;8.514;2023-06-22T04:26:05;19.30;99.90
5222;DHT22;2630;52.036;8.514;2023-06-22T04:28:31;19.30;99.90
5222;DHT22;2630;52.036;8.514;2023-06-22T04:31:01;19.30;99.90
5222;DHT22;2630;52.036;8.514;2023-06-22T04:33:28;19.40;99.90
5222;DHT22;2630;52.036;8.514;2023-06-22T04:35:55;19.40;99.90
5222;DHT22;2630;52.036;8.514;2023-06-22T04:38:22;19.40;99.90
5222;DHT22;2630;52.036;8.514;2023-06-22T04:40:49;19.40;99.90
5222;DHT22;2630;52.036;8.514;2023-06-22T04:43:14;19.50;99.90
5222;DHT22;2630;52.036;8.514;2023-06-22T04:45:40;19.60;99.90
5222;DHT22;2630;52.036;8.514;2023-06-22T04:48:06;19.70;99.90
5222;DHT22;2630;52.036;8.514;2023-06-22T04:52:58;19.90;99.90
5222;DHT22;2630;52.036;8.514;2023-06-22T04:55:24;19.90;99.90
5222;DHT22;2630;52.036;8.514;2023-06-22T04:57:51;20.10;99.90
5222;DHT22;2630;52.036;8.514;2023-06-22T05:00:18;20.20;99.90
5222;DHT22;2630;52.036;8.514;2023-06-22T05:02:46;20.20;99.90
5222;DHT22;2630;52.036;8.514;2023-06-22T05:05:12;20.30;99.90
5222;DHT22;2630;52.036;8.514;2023-06-22T05:07:47;20.40;99.90
5222;DHT22;2630;52.036;8.514;2023-06-22T05:10:18;20.40;99.90
5222;DHT22;2630;52.036;8.514;2023-06-22T05:12:44;20.50;99.90
5222;DHT22;2630;52.036;8.514;2023-06-22T05:15:10;20.60;99.90
5222;DHT22;2630;52.036;8.514;2023-06-22T05:17:36;20.70;99.90
5222;DHT22;2630;52.036;8.514;2023-06-22T05:20:11;20.80;99.90
5222;DHT22;2630;52.036;8.514;2023-06-22T05:25:05;20.90;99.90
5222;DHT22;2630;52.036;8.514;2023-06-22T05:27:31;20.90;99.90
5222;DHT22;2630;52.036;8.514;2023-06-22T05:29:57;21.00;99.90
5222;DHT22;2630;52.036;8.514;2023-06-22T05:32:22;20.90;99.90
5222;DHT22;2630;52.036;8.514;2023-06-22T05:34:48;21.00;99.90
5222;DHT22;2630;52.036;8.514;2023-06-22T05:37:13;21.00;99.90
5222;DHT22;2630;52.036;8.514;2023-06-22T05:39:39;21.10;99.90
5222;DHT22;2630;52.036;8.514;2023-06-22T05:42:05;21.20;99.90
5222;DHT22;2630;52.036;8.514;2023-06-22T05:44:32;21.40;99.90
5222;DHT22;2630;52.036;8.514;2023-06-22T05:46:59;21.40;99.90
5222;DHT22;2630;52.036;8.514;2023-06-22T05:49:24;21.50;99.90
5222;DHT22;2630;52.036;8.514;2023-06-22T05:54:22;21.60;99.90
5222;DHT22;2630;52.036;8.514;2023-06-22T05:56:47;21.70;99.90
5222;DHT22;2630;52.036;8.514;2023-06-22T05:59:13;21.70;99.90
5222;DHT22;2630;52.036;8.514;2023-06-22T06:01:39;21.90;99.90
5222;DHT22;2630;52.036;8.514;2023-06-22T06:04:05;22.10;99.90
5222;DHT22;2630;52.036;8.514;2023-06-22T06:11:26;22.80;99.90
5222;DHT22;2630;52.036;8.514;2023-06-22T06:13:52;23.10;99.90
5222;DHT22;2630;52.036;8.514;2023-06-22T06:16:18;23.50;99.90
5222;DHT22;2630;52.036;8.514;2023-06-22T06:18:43;23.70;99.90
5222;DHT22;2630;52.036;8.514;2023-06-22T06:21:09;24.00;99.90
5222;DHT22;2630;52.036;8.514;2023-06-22T06:26:00;24.00;99.90
5222;DHT22;2630;52.036;8.514;2023-06-22T06:33:19;24.20;99.90
5222;DHT22;2630;52.036;8.514;2023-06-22T06:35:46;24.20;99.90
5222;DHT22;2630;52.036;8.514;2023-06-22T06:40:37;23.90;99.90
5222;DHT22;2630;52.036;8.514;2023-06-22T06:43:03;24.00;99.90
5222;DHT22;2630;52.036;8.514;2023-06-22T06:47:56;24.30;99.90
5222;DHT22;2630;52.036;8.514;2023-06-22T06:50:22;24.20;99.90
5222;DHT22;2630;52.036;8.514;2023-06-22T06:57:42;24.30;99.90
5222;DHT22;2630;52.036;8.514;2023-06-22T07:00:10;24.30;99.90
5222;DHT22;2630;52.036;8.514;2023-06-22T07:02:38;24.30;99.90
5222;DHT22;2630;52.036;8.514;2023-06-22T07:05:05;24.40;99.90
5222;DHT22;2630;52.036;8.514;2023-06-22T07:07:31;24.40;99.90
5222;DHT22;2630;52.036;8.514;2023-06-22T07:09:57;24.40;99.90
5222;DHT22;2630;52.036;8.514;2023-06-22T07:12:22;24.40;99.90
5222;DHT22;2630;52.036;8.514;2023-06-22T07:14:48;24.40;99.90
5222;DHT22;2630;52.036;8.514;2023-06-22T07:17:14;24.20;99.90
5222;DHT22;2630;52.036;8.514;2023-06-22T07:22:07;24.10;99.90
5222;DHT22;2630;52.036;8.514;2023-06-22T07:24:33;24.00;99.90
5222;DHT22;2630;52.036;8.514;2023-06-22T07:26:59;23.90;99.90
5222;DHT22;2630;52.036;8.514;2023-06-22T07:29:25;23.80;99.90
5222;DHT22;2630;52.036;8.514;2023-06-22T07:31:52;23.60;99.90
5222;DHT22;2630;52.036;8.514;2023-06-22T07:34:18;23.90;99.90
5222;DHT22;2630;52.036;8.514;2023-06-22T07:48:56;23.80;99.90
5222;DHT22;2630;52.036;8.514;2023-06-22T07:56:15;23.90;99.90
5222;DHT22;2630;52.036;8.514;2023-06-22T07:58:47;24.00;99.90
5222;DHT22;2630;52.036;8.514;2023-06-22T08:01:16;24.00;99.90
5222;DHT22;2630;52.036;8.514;2023-06-22T08:03:42;24.20;99.90
5222;DHT22;2630;52.036;8.514;2023-06-22T08:06:09;24.20;99.90
5222;DHT22;2630;52.036;8.514;2023-06-22T08:08:37;24.20;99.90
5222;DHT22;2630;52.036;8.514;2023-06-22T08:11:03;24.20;99.90
5222;DHT22;2630;52.036;8.514;2023-06-22T08:18:20;24.30;99.90
5222;DHT22;2630;52.036;8.514;2023-06-22T08:23:12;24.60;99.90
5222;DHT22;2630;52.036;8.514;2023-06-22T08:25:37;24.70;99.90
5222;DHT22;2630;52.036;8.514;2023-06-22T08:28:04;24.80;99.90
5222;DHT22;2630;52.036;8.514;2023-06-22T08:30:30;24.90;99.90
5222;DHT22;2630;52.036;8.514;2023-06-22T08:32:56;25.10;99.90
5222;DHT22;2630;52.036;8.514;2023-06-22T08:35:25;25.30;99.90
5222;DHT22;2630;52.036;8.514;2023-06-22T08:40:21;25.90;99.90
5222;DHT22;2630;52.036;8.514;2023-06-22T08:42:47;26.40;99.90
5222;DHT22;2630;52.036;8.514;2023-06-22T08:45:13;26.50;99.90
5222;DHT22;2630;52.036;8.514;2023-06-22T08:47:40;26.50;99.90
5222;DHT22;2630;52.036;8.514;2023-06-22T08:50:07;26.50;99.90
5222;DHT22;2630;52.036;8.514;2023-06-22T08:52:34;26.50;99.90
5222;DHT22;2630;52.036;8.514;2023-06-22T08:55:00;26.60;99.90
5222;DHT22;2630;52.036;8.514;2023-06-22T08:57:26;27.00;99.90
5222;DHT22;2630;52.036;8.514;2023-06-22T08:59:51;27.30;99.90
5222;DHT22;2630;52.036;8.514;2023-06-22T09:02:18;27.60;99.90
5222;DHT22;2630;52.036;8.514;2023-06-22T09:04:45;28.00;99.90
5222;DHT22;2630;52.036;8.514;2023-06-22T09:07:11;28.40;99.90
5222;DHT22;2630;52.036;8.514;2023-06-22T09:09:37;28.70;99.90
5222;DHT22;2630;52.036;8.514;2023-06-22T09:16:54;30.50;99.90
5222;DHT22;2630;52.036;8.514;2023-06-22T09:19:20;30.60;99.90
5222;DHT22;2630;52.036;8.514;2023-06-22T09:21:46;30.30;99.90
5222;DHT22;2630;52.036;8.514;2023-06-22T09:24:11;30.50;99.90
5222;DHT22;2630;52.036;8.514;2023-06-22T09:26:37;30.80;99.90
5222;DHT22;2630;52.036;8.514;2023-06-22T09:29:05;30.80;99.90
5222;DHT22;2630;52.036;8.514;2023-06-22T09:31:31;30.20;99.90
5222;DHT22;2630;52.036;8.514;2023-06-22T09:33:56;30.00;99.90
5222;DHT22;2630;52.036;8.514;2023-06-22T09:36:22;30.00;99.90
5222;DHT22;2630;52.036;8.514;2023-06-22T09:38:48;29.80;99.90
5222;DHT22;2630;52.036;8.514;2023-06-22T09:41:14;29.90;99.90
5222;DHT22;2630;52.036;8.514;2023-06-22T09:43:40;29.80;99.90
5222;DHT22;2630;52.036;8.514;2023-06-22T09:53:24;28.90;99.90
5222;DHT22;2630;52.036;8.514;2023-06-22T09:58:15;31.00;99.90
5222;DHT22;2630;52.036;8.514;2023-06-22T10:00:41;32.60;99.90
5222;DHT22;2630;52.036;8.514;2023-06-22T10:03:07;34.50;99.90
5222;DHT22;2630;52.036;8.514;2023-06-22T10:05:33;35.50;99.90
5222;DHT22;2630;52.036;8.514;2023-06-22T10:07:58;35.80;99.90
5222;DHT22;2630;52.036;8.514;2023-06-22T10:10:24;36.80;99.90
5222;DHT22;2630;52.036;8.514;2023-06-22T10:12:57;37.80;97.90
5222;DHT22;2630;52.036;8.514;2023-06-22T10:15:27;38.20;96.20
5222;DHT22;2630;52.036;8.514;2023-06-22T10:17:53;37.90;94.60
5222;DHT22;2630;52.036;8.514;2023-06-22T10:20:18;37.20;95.80
5222;DHT22;2630;52.036;8.514;2023-06-22T10:22:46;37.40;96.70
5222;DHT22;2630;52.036;8.514;2023-06-22T10:25:12;36.60;95.60
5222;DHT22;2630;52.036;8.514;2023-06-22T10:27:38;35.40;97.10
5222;DHT22;2630;52.036;8.514;2023-06-22T10:32:34;33.20;99.90
5222;DHT22;2630;52.036;8.514;2023-06-22T10:35:00;32.50;99.90
5222;DHT22;2630;52.036;8.514;2023-06-22T10:37:25;31.90;99.90
5222;DHT22;2630;52.036;8.514;2023-06-22T10:39:51;31.50;99.90
5222;DHT22;2630;52.036;8.514;2023-06-22T10:42:16;30.90;99.90
5222;DHT22;2630;52.036;8.514;2023-06-22T10:44:42;30.70;99.90
5222;DHT22;2630;52.036;8.514;2023-06-22T10:47:09;30.70;99.90
5222;DHT22;2630;52.036;8.514;2023-06-22T10:49:39;30.80;99.90
5222;DHT22;2630;52.036;8.514;2023-06-22T10:52:06;30.60;99.90
5222;DHT22;2630;52.036;8.514;2023-06-22T10:54:33;30.30;99.90
5222;DHT22;2630;52.036;8.514;2023-06-22T10:59:25;29.90;99.90
5222;DHT22;2630;52.036;8.514;2023-06-22T11:01:53;29.60;99.90
5222;DHT22;2630;52.036;8.514;2023-06-22T11:04:18;29.10;99.90
5222;DHT22;2630;52.036;8.514;2023-06-22T11:06:44;28.80;99.90
5222;DHT22;2630;52.036;8.514;2023-06-22T11:09:09;28.50;99.90
5222;DHT22;2630;52.036;8.514;2023-06-22T11:11:35;28.50;99.90
5222;DHT22;2630;52.036;8.514;2023-06-22T11:14:00;28.40;99.90
5222;DHT22;2630;52.036;8.514;2023-06-22T11:16:26;28.30;99.90
5222;DHT22;2630;52.036;8.514;2023-06-22T11:21:18;28.60;99.90
5222;DHT22;2630;52.036;8.514;2023-06-22T11:33:27;29.10;99.90
5222;DHT22;2630;52.036;8.514;2023-06-22T11:40:47;29.10;99.90
5222;DHT22;2630;52.036;8.514;2023-06-22T11:43:13;29.10;99.90
5222;DHT22;2630;52.036;8.514;2023-06-22T11:45:40;28.80;99.90
5222;DHT22;2630;52.036;8.514;2023-06-22T11:48:05;28.80;99.90
5222;DHT22;2630;52.036;8.514;2023-06-22T11:57:57;28.30;99.90
5222;DHT22;2630;52.036;8.514;2023-06-22T12:00:29;28.10;99.90
5222;DHT22;2630;52.036;8.514;2023-06-22T12:02:55;27.90;99.90
5222;DHT22;2630;52.036;8.514;2023-06-22T12:05:21;27.80;99.90
5222;DHT22;2630;52.036;8.514;2023-06-22T12:07:48;27.80;99.90
5222;DHT22;2630;52.036;8.514;2023-06-22T12:10:14;27.80;99.90
5222;DHT22;2630;52.036;8.514;2023-06-22T12:12:40;27.90;99.90
5222;DHT22;2630;52.036;8.514;2023-06-22T12:15:06;27.80;99.90
5222;DHT22;2630;52.036;8.514;2023-06-22T12:17:31;27.80;99.90
5222;DHT22;2630;52.036;8.514;2023-06-22T12:19:58;27.80;99.90
5222;DHT22;2630;52.036;8.514;2023-06-22T12:22:24;27.70;99.90
5222;DHT22;2630;52.036;8.514;2023-06-22T12:24:49;27.60;99.90
5222;DHT22;2630;52.036;8.514;2023-06-22T12:27:16;27.40;99.90
5222;DHT22;2630;52.036;8.514;2023-06-22T12:29:45;27.30;99.90
5222;DHT22;2630;52.036;8.514;2023-06-22T12:32:10;27.10;99.90
5222;DHT22;2630;52.036;8.514;2023-06-22T12:34:38;26.90;99.90
5222;DHT22;2630;52.036;8.514;2023-06-22T12:37:04;26.70;99.90
5222;DHT22;2630;52.036;8.514;2023-06-22T12:39:31;26.50;99.90
5222;DHT22;2630;52.036;8.514;2023-06-22T12:41:57;26.40;99.90
5222;DHT22;2630;52.036;8.514;2023-06-22T12:46:48;26.20;99.90
5222;DHT22;2630;52.036;8.514;2023-06-22T12:49:14;26.10;99.90
5222;DHT22;2630;52.036;8.514;2023-06-22T12:51:40;25.90;99.90
5222;DHT22;2630;52.036;8.514;2023-06-22T12:56:33;25.80;99.90
5222;DHT22;2630;52.036;8.514;2023-06-22T12:58:59;25.80;99.90
5222;DHT22;2630;52.036;8.514;2023-06-22T13:18:29;25.00;99.90
5222;DHT22;2630;52.036;8.514;2023-06-22T13:55:04;23.40;99.90
5222;DHT22;2630;52.036;8.514;2023-06-22T14:17:00;22.10;99.90
5222;DHT22;2630;52.036;8.514;2023-06-22T14:21:51;21.80;99.90
5222;DHT22;2630;52.036;8.514;2023-06-22T14:24:17;21.60;99.90
5222;DHT22;2630;52.036;8.514;2023-06-22T14:31:35;21.20;99.90
5222;DHT22;2630;52.036;8.514;2023-06-22T14:34:00;21.00;99.90
5222;DHT22;2630;52.036;8.514;2023-06-22T14:36:28;20.90;99.90
5222;DHT22;2630;52.036;8.514;2023-06-22T14:38:53;20.90;99.90
5222;DHT22;2630;52.036;8.514;2023-06-22T14:41:19;20.80;99.90
5222;DHT22;2630;52.036;8.514;2023-06-22T14:43:49;20.70;99.90
5222;DHT22;2630;52.036;8.514;2023-06-22T14:46:15;20.70;99.90
5222;DHT22;2630;52.036;8.514;2023-06-22T14:51:08;20.70;99.90
5222;DHT22;2630;52.036;8.514;2023-06-22T15:05:54;20.80;99.90
5222;DHT22;2630;52.036;8.514;2023-06-22T15:22:57;21.60;99.90
5222;DHT22;2630;52.036;8.514;2023-06-22T15:32:44;22.50;99.90
5222;DHT22;2630;52.036;8.514;2023-06-22T15:35:11;22.60;99.90
5222;DHT22;2630;52.036;8.514;2023-06-22T15:37:36;22.70;99.90
5222;DHT22;2630;52.036;8.514;2023-06-22T15:49:50;23.00;99.90
5222;DHT22;2630;52.036;8.514;2023-06-22T15:52:17;23.10;99.90
5222;DHT22;2630;52.036;8.514;2023-06-22T15:57:10;23.10;99.90
5222;DHT22;2630;52.036;8.514;2023-06-22T15:59:39;23.00;99.90
5222;DHT22;2630;52.036;8.514;2023-06-22T16:02:05;22.90;99.90
5222;DHT22;2630;52.036;8.514;2023-06-22T16:04:31;22.90;99.90
5222;DHT22;2630;52.036;8.514;2023-06-22T16:06:56;22.90;99.90
5222;DHT22;2630;52.036;8.514;2023-06-22T16:09:22;22.70;99.90
5222;DHT22;2630;52.036;8.514;2023-06-22T16:11:47;22.70;99.90
5222;DHT22;2630;52.036;8.514;2023-06-22T16:14:13;22.70;99.90
5222;DHT22;2630;52.036;8.514;2023-06-22T16:16:38;22.70;99.90
5222;DHT22;2630;52.036;8.514;2023-06-22T16:19:04;22.70;99.90
5222;DHT22;2630;52.036;8.514;2023-06-22T16:33:41;22.40;99.90
5222;DHT22;2630;52.036;8.514;2023-06-22T16:38:38;22.10;99.90
5222;DHT22;2630;52.036;8.514;2023-06-22T16:58:09;21.70;99.90
5222;DHT22;2630;52.036;8.514;2023-06-22T17:00:43;21.60;99.90
5222;DHT22;2630;52.036;8.514;2023-06-22T17:03:12;21.60;99.90
5222;DHT22;2630;52.036;8.514;2023-06-22T17:05:41;21.50;99.90
5222;DHT22;2630;52.036;8.514;2023-06-22T17:10:36;21.50;99.90
5222;DHT22;2630;52.036;8.514;2023-06-22T17:22:50;21.10;99.90
5222;DHT22;2630;52.036;8.514;2023-06-22T17:25:17;21.00;99.90
5222;DHT22;2630;52.036;8.514;2023-06-22T17:27:47;20.90;99.90
5222;DHT22;2630;52.036;8.514;2023-06-22T17:30:14;20.90;99.90
5222;DHT22;2630;52.036;8.514;2023-06-22T17:32:48;20.90;99.90
5222;DHT22;2630;52.036;8.514;2023-06-22T17:35:14;20.80;99.90
5222;DHT22;2630;52.036;8.514;2023-06-22T17:38:06;20.80;99.90
5222;DHT22;2630;52.036;8.514;2023-06-22T17:40:32;20.70;99.90
5222;DHT22;2630;52.036;8.514;2023-06-22T17:43:03;20.70;99.90
5222;DHT22;2630;52.036;8.514;2023-06-22T17:45:41;20.70;99.90
5222;DHT22;2630;52.036;8.514;2023-06-22T17:48:08;20.60;99.90
5222;DHT22;2630;52.036;8.514;2023-06-22T17:50:39;20.60;99.90
5222;DHT22;2630;52.036;8.514;2023-06-22T17:53:11;20.50;99.90
5222;DHT22;2630;52.036;8.514;2023-06-22T17:55:37;20.50;99.90
5222;DHT22;2630;52.036;8.514;2023-06-22T17:58:04;20.40;99.90
5222;DHT22;2630;52.036;8.514;2023-06-22T18:02:56;20.40;99.90
5222;DHT22;2630;52.036;8.514;2023-06-22T18:07:57;20.40;99.90
5222;DHT22;2630;52.036;8.514;2023-06-22T18:15:19;20.40;99.90
5222;DHT22;2630;52.036;8.514;2023-06-22T18:17:46;20.40;99.90
5222;DHT22;2630;52.036;8.514;2023-06-22T18:20:11;20.30;99.90
5222;DHT22;2630;52.036;8.514;2023-06-22T18:22:38;20.30;99.90
5222;DHT22;2630;52.036;8.514;2023-06-22T18:25:05;20.30;99.90
5222;DHT22;2630;52.036;8.514;2023-06-22T18:27:35;20.30;99.90
5222;DHT22;2630;52.036;8.514;2023-06-22T18:30:02;20.30;99.90
5222;DHT22;2630;52.036;8.514;2023-06-22T18:32:28;20.30;99.90
5222;DHT22;2630;52.036;8.514;2023-06-22T18:39:50;20.30;99.90
5222;DHT22;2630;52.036;8.514;2023-06-22T18:42:17;20.30;99.90
5222;DHT22;2630;52.036;8.514;2023-06-22T18:47:10;20.30;99.90
5222;DHT22;2630;52.036;8.514;2023-06-22T18:52:16;20.40;99.90
5222;DHT22;2630;52.036;8.514;2023-06-22T18:54:44;20.40;99.90
5222;DHT22;2630;52.036;8.514;2023-06-22T19:14:42;20.40;99.90
5222;DHT22;2630;52.036;8.514;2023-06-22T19:17:24;20.40;99.90
5222;DHT22;2630;52.036;8.514;2023-06-22T19:19:52;20.50;99.90
5222;DHT22;2630;52.036;8.514;2023-06-22T19:24:50;20.40;99.90
5222;DHT22;2630;52.036;8.514;2023-06-22T19:27:19;20.30;99.90
5222;DHT22;2630;52.036;8.514;2023-06-22T19:34:45;20.30;99.90
5222;DHT22;2630;52.036;8.514;2023-06-22T19:37:14;20.30;99.90
5222;DHT22;2630;52.036;8.514;2023-06-22T19:42:06;20.30;99.90
5222;DHT22;2630;52.036;8.514;2023-06-22T19:49:25;20.40;99.90
5222;DHT22;2630;52.036;8.514;2023-06-22T19:56:43;20.40;99.90
5222;DHT22;2630;52.036;8.514;2023-06-22T20:19:16;20.40;99.90
5222;DHT22;2630;52.036;8.514;2023-06-22T20:21:43;20.40;99.90
5222;DHT22;2630;52.036;8.514;2023-06-22T20:24:10;20.30;99.90
5222;DHT22;2630;52.036;8.514;2023-06-22T20:36:47;20.20;99.90
5222;DHT22;2630;52.036;8.514;2023-06-22T20:44:04;20.20;99.90
5222;DHT22;2630;52.036;8.514;2023-06-22T20:46:30;20.10;99.90
5222;DHT22;2630;52.036;8.514;2023-06-22T20:56:15;20.10;99.90
5222;DHT22;2630;52.036;8.514;2023-06-22T20:58:41;20.20;99.90
5222;DHT22;2630;52.036;8.514;2023-06-22T21:01:06;20.10;99.90
5222;DHT22;2630;52.036;8.514;2023-06-22T21:25:30;19.90;99.90
5222;DHT22;2630;52.036;8.514;2023-06-22T21:35:14;19.90;99.90
5222;DHT22;2630;52.036;8.514;2023-06-22T21:37:41;19.90;99.90
5222;DHT22;2630;52.036;8.514;2023-06-22T21:42:33;19.80;99.90
5222;DHT22;2630;52.036;8.514;2023-06-22T21:44:59;19.80;99.90
5222;DHT22;2630;52.036;8.514;2023-06-22T21:47:24;19.80;99.90
5222;DHT22;2630;52.036;8.514;2023-06-22T21:52:17;19.80;99.90
5222;DHT22;2630;52.036;8.514;2023-06-22T21:54:42;19.80;99.90
5222;DHT22;2630;52.036;8.514;2023-06-22T21:57:08;19.80;99.90
5222;DHT22;2630;52.036;8.514;2023-06-22T21:59:33;19.80;99.90
5222;DHT22;2630;52.036;8.514;2023-06-22T22:01:59;19.80;99.90
5222;DHT22;2630;52.036;8.514;2023-06-22T22:04:25;19.80;99.90
5222;DHT22;2630;52.036;8.514;2023-06-22T22:06:50;19.80;99.90
5222;DHT22;2630;52.036;8.514;2023-06-22T22:09:17;19.80;99.90
5222;DHT22;2630;52.036;8.514;2023-06-22T22:16:38;19.80;99.90
5222;DHT22;2630;52.036;8.514;2023-06-22T22:19:03;19.70;99.90
5222;DHT22;2630;52.036;8.514;2023-06-22T22:21:29;19.70;99.90
5222;DHT22;2630;52.036;8.514;2023-06-22T22:23:54;19.70;99.90
5222;DHT22;2630;52.036;8.514;2023-06-22T22:26:20;19.70;99.90
5222;DHT22;2630;52.036;8.514;2023-06-22T22:28:46;19.70;99.90
5222;DHT22;2630;52.036;8.514;2023-06-22T22:33:37;19.70;99.90
5222;DHT22;2630;52.036;8.514;2023-06-22T22:36:07;19.70;99.90
5222;DHT22;2630;52.036;8.514;2023-06-22T22:38:35;19.70;99.90
5222;DHT22;2630;52.036;8.514;2023-06-22T22:41:04;19.80;99.90
5222;DHT22;2630;52.036;8.514;2023-06-22T22:43:29;19.80;99.90
5222;DHT22;2630;52.036;8.514;2023-06-22T22:45:55;19.70;99.90
5222;DHT22;2630;52.036;8.514;2023-06-22T22:48:20;19.70;99.90
5222;DHT22;2630;52.036;8.514;2023-06-22T22:50:46;19.70;99.90
5222;DHT22;2630;52.036;8.514;2023-06-22T22:53:12;19.60;99.90
5222;DHT22;2630;52.036;8.514;2023-06-22T22:58:04;19.60;99.90
5222;DHT22;2630;52.036;8.514;2023-06-22T23:00:31;19.60;99.90
5222;DHT22;2630;52.036;8.514;2023-06-22T23:02:57;19.50;99.90
5222;DHT22;2630;52.036;8.514;2023-06-22T23:05:23;19.50;99.90
5222;DHT22;2630;52.036;8.514;2023-06-22T23:07:49;19.40;99.90
5222;DHT22;2630;52.036;8.514;2023-06-22T23:12:42;19.40;99.90
5222;DHT22;2630;52.036;8.514;2023-06-22T23:15:08;19.40;99.90
5222;DHT22;2630;52.036;8.514;2023-06-22T23:17:34;19.40;99.90
5222;DHT22;2630;52.036;8.514;2023-06-22T23:20:00;19.40;99.90
5222;DHT22;2630;52.036;8.514;2023-06-22T23:25:06;19.30;99.90
5222;DHT22;2630;52.036;8.514;2023-06-22T23:27:38;19.30;99.90
5222;DHT22;2630;52.036;8.514;2023-06-22T23:30:04;19.30;99.90